Time;durP1;ratioP1;P1;durP2;ratioP2;P2;SDS_P1;SDS_P2;PMS_P1;PMS_P2;Temp;Humidity;BMP_temperature;BMP_pressure;BME280_temperature;BME280_humidity;BME280_pressure;Samples;Min_cycle;Max_cycle;Signal;HPM_P1;HPM_P2
2023/06/11 00:00:23;;;;;;;;;;;24.10;49.70;;;;;;5095699;28;20097;-64
2023/06/11 00:02:53;;;;;;;;;;;24.10;49.80;;;;;;5114052;28;20054;-64
2023/06/11 00:05:21;;;;;;;;;;;24.10;49.80;;;;;;5113894;28;20418;-64
2023/06/11 00:07:48;;;;;;;;;;;24.00;49.80;;;;;;5096114;28;20367;-64
2023/06/11 00:10:15;;;;;;;;;;;24.00;49.80;;;;;;5095202;28;20405;-64
2023/06/11 00:12:40;;;;;;;;;;;24.00;49.90;;;;;;5093512;28;19994;-64
2023/06/11 00:15:06;;;;;;;;;;;24.00;49.90;;;;;;5075227;28;19920;-64
2023/06/11 00:17:34;;;;;;;;;;;24.00;49.90;;;;;;5075514;28;19940;-64
2023/06/11 00:20:03;;;;;;;;;;;24.00;50.00;;;;;;5093228;28;19974;-64
2023/06/11 00:22:31;;;;;;;;;;;24.00;50.00;;;;;;5091888;28;19924;-64
2023/06/11 00:24:57;;;;;;;;;;;24.00;50.00;;;;;;5074954;28;19950;-68
2023/06/11 00:27:22;;;;;;;;;;;24.00;50.00;;;;;;5109091;28;19920;-64
2023/06/11 00:29:48;;;;;;;;;;;24.00;50.00;;;;;;5074923;28;19981;-64
2023/06/11 00:32:13;;;;;;;;;;;23.90;50.00;;;;;;5074949;28;19927;-64
2023/06/11 00:34:39;;;;;;;;;;;23.90;50.00;;;;;;5092965;28;20383;-63
2023/06/11 00:37:05;;;;;;;;;;;24.00;50.10;;;;;;5074745;28;19956;-64
2023/06/11 00:39:30;;;;;;;;;;;23.90;50.80;;;;;;5092933;28;19921;-64
2023/06/11 00:41:57;;;;;;;;;;;23.90;50.10;;;;;;5074940;28;20392;-63
2023/06/11 00:44:22;;;;;;;;;;;23.90;50.10;;;;;;5092998;28;19955;-64
2023/06/11 00:46:51;;;;;;;;;;;23.90;50.20;;;;;;5092877;28;19963;-64
2023/06/11 00:49:17;;;;;;;;;;;23.90;50.20;;;;;;5092904;28;19920;-63
2023/06/11 00:51:44;;;;;;;;;;;23.90;50.30;;;;;;5074700;28;19924;-64
2023/06/11 00:54:12;;;;;;;;;;;23.90;50.30;;;;;;5092763;28;19935;-63
2023/06/11 00:56:39;;;;;;;;;;;23.90;50.30;;;;;;5074865;28;20419;-64
2023/06/11 00:59:06;;;;;;;;;;;23.90;50.30;;;;;;5092675;28;20363;-64
2023/06/11 01:01:33;;;;;;;;;;;23.90;50.40;;;;;;5074488;28;19926;-64
2023/06/11 01:04:00;;;;;;;;;;;23.90;50.40;;;;;;5074563;28;19920;-64
2023/06/11 01:06:28;;;;;;;;;;;23.80;50.30;;;;;;5074360;28;19920;-64
2023/06/11 01:08:55;;;;;;;;;;;23.80;50.40;;;;;;5092553;28;19931;-64
2023/06/11 01:11:21;;;;;;;;;;;23.80;50.40;;;;;;5083252;28;19949;-64
2023/06/11 01:13:49;;;;;;;;;;;23.90;50.40;;;;;;5128066;27;21272;-64
2023/06/11 01:16:24;;;;;;;;;;;23.80;50.40;;;;;;5128931;27;19927;-64
2023/06/11 01:18:58;;;;;;;;;;;23.80;50.40;;;;;;5094626;28;19927;-64
2023/06/11 01:21:25;;;;;;;;;;;23.80;50.50;;;;;;5094696;28;19924;-64
2023/06/11 01:24:03;;;;;;;;;;;23.80;50.50;;;;;;5112740;28;19920;-64
2023/06/11 01:26:48;;;;;;;;;;;23.80;50.50;;;;;;5094707;28;19985;-64
2023/06/11 01:29:15;;;;;;;;;;;23.80;50.50;;;;;;5094309;28;20379;-64
2023/06/11 01:31:40;;;;;;;;;;;23.80;50.50;;;;;;5112426;28;19923;-64
2023/06/11 01:34:06;;;;;;;;;;;23.80;50.50;;;;;;5094745;28;19927;-64
2023/06/11 01:36:36;;;;;;;;;;;23.80;50.60;;;;;;5112691;28;19920;-64
2023/06/11 01:39:02;;;;;;;;;;;23.80;50.60;;;;;;5094692;28;19920;-64
2023/06/11 01:41:28;;;;;;;;;;;23.70;50.60;;;;;;5094406;28;19920;-63
2023/06/11 01:43:53;;;;;;;;;;;23.70;50.50;;;;;;5094258;28;19919;-64
2023/06/11 01:46:19;;;;;;;;;;;23.70;50.60;;;;;;5094587;28;20352;-63
2023/06/11 01:48:44;;;;;;;;;;;23.70;50.60;;;;;;5112483;28;19973;-64
2023/06/11 01:51:13;;;;;;;;;;;23.70;50.60;;;;;;5112661;28;19927;-64
2023/06/11 01:53:39;;;;;;;;;;;23.70;50.60;;;;;;5112394;28;19924;-63
2023/06/11 01:56:05;;;;;;;;;;;23.70;50.60;;;;;;5128614;28;19927;-64
2023/06/11 01:58:31;;;;;;;;;;;23.80;50.70;;;;;;5112361;28;20302;-64
2023/06/11 02:00:58;;;;;;;;;;;23.70;50.70;;;;;;5094444;28;19923;-63
2023/06/11 02:03:23;;;;;;;;;;;23.70;50.60;;;;;;5094101;28;19920;-64
2023/06/11 02:05:49;;;;;;;;;;;23.70;50.70;;;;;;5094401;28;20287;-63
2023/06/11 02:08:15;;;;;;;;;;;23.70;50.70;;;;;;5112299;28;19964;-64
2023/06/11 02:10:41;;;;;;;;;;;23.70;50.70;;;;;;5112091;28;19924;-64
2023/06/11 02:13:07;;;;;;;;;;;23.70;50.70;;;;;;5112151;28;19924;-64
2023/06/11 02:15:32;;;;;;;;;;;23.70;50.70;;;;;;5114693;28;19919;-64
2023/06/11 02:17:58;;;;;;;;;;;23.60;50.70;;;;;;5097697;28;19927;-64
2023/06/11 02:20:23;;;;;;;;;;;23.70;50.70;;;;;;5098013;28;19920;-64
2023/06/11 02:22:49;;;;;;;;;;;23.60;50.70;;;;;;5116027;28;19924;-64
2023/06/11 02:25:14;;;;;;;;;;;23.70;50.70;;;;;;5097632;28;20011;-64
2023/06/11 02:27:40;;;;;;;;;;;23.60;50.70;;;;;;5098005;28;19926;-64
2023/06/11 02:30:05;;;;;;;;;;;23.60;50.70;;;;;;5097806;28;19976;-64
2023/06/11 02:32:31;;;;;;;;;;;23.60;50.70;;;;;;5097405;28;19931;-64
2023/06/11 02:34:56;;;;;;;;;;;23.60;50.70;;;;;;5115950;28;20012;-63
2023/06/11 02:37:22;;;;;;;;;;;23.60;50.80;;;;;;5097372;28;19919;-64
2023/06/11 02:39:47;;;;;;;;;;;23.60;50.70;;;;;;5097328;28;19920;-64
2023/06/11 02:42:13;;;;;;;;;;;23.60;50.80;;;;;;5097649;28;19920;-64
2023/06/11 02:44:38;;;;;;;;;;;23.60;50.80;;;;;;5097539;28;19924;-64
2023/06/11 02:47:04;;;;;;;;;;;23.60;50.80;;;;;;5115586;28;20312;-64
2023/06/11 02:49:30;;;;;;;;;;;23.60;50.80;;;;;;5097129;28;19920;-64
2023/06/11 02:51:55;;;;;;;;;;;23.50;50.80;;;;;;5097301;28;19924;-63
2023/06/11 02:54:21;;;;;;;;;;;23.50;50.80;;;;;;5097300;28;19984;-64
2023/06/11 02:56:46;;;;;;;;;;;23.50;50.80;;;;;;5115395;28;19923;-64
2023/06/11 02:59:12;;;;;;;;;;;23.50;50.80;;;;;;5097103;28;20023;-64
2023/06/11 03:01:38;;;;;;;;;;;23.50;50.90;;;;;;5097301;28;20324;-64
2023/06/11 03:04:05;;;;;;;;;;;23.50;50.90;;;;;;5097196;28;19919;-64
2023/06/11 03:06:31;;;;;;;;;;;23.50;50.90;;;;;;5097123;28;19924;-64
2023/06/11 03:08:57;;;;;;;;;;;23.50;50.90;;;;;;5096810;28;20006;-64
2023/06/11 03:11:22;;;;;;;;;;;23.50;51.00;;;;;;5096543;28;20348;-64
2023/06/11 03:13:48;;;;;;;;;;;23.50;51.00;;;;;;5115015;28;19977;-64
2023/06/11 03:16:13;;;;;;;;;;;23.50;51.00;;;;;;5096962;28;19919;-64
2023/06/11 03:18:39;;;;;;;;;;;23.50;51.00;;;;;;5096929;28;20371;-64
2023/06/11 03:21:04;;;;;;;;;;;23.40;51.00;;;;;;5114792;28;20379;-64
2023/06/11 03:23:30;;;;;;;;;;;23.40;51.00;;;;;;5096587;28;20305;-64
2023/06/11 03:25:55;;;;;;;;;;;23.40;51.00;;;;;;5096482;28;20319;-64
2023/06/11 03:28:21;;;;;;;;;;;23.40;51.00;;;;;;5115152;28;19968;-64
2023/06/11 03:30:46;;;;;;;;;;;23.40;51.00;;;;;;5114706;28;19927;-64
2023/06/11 03:33:12;;;;;;;;;;;23.40;51.00;;;;;;5114562;28;19967;-64
2023/06/11 03:35:37;;;;;;;;;;;23.40;51.10;;;;;;5096202;28;19923;-64
2023/06/11 03:38:03;;;;;;;;;;;23.40;51.10;;;;;;5114673;28;20010;-64
2023/06/11 03:40:28;;;;;;;;;;;23.40;51.10;;;;;;5096306;28;19923;-64
2023/06/11 03:42:54;;;;;;;;;;;23.40;51.10;;;;;;5096402;28;19920;-64
2023/06/11 03:45:20;;;;;;;;;;;23.40;51.10;;;;;;5096408;28;20024;-63
2023/06/11 03:47:45;;;;;;;;;;;23.40;51.10;;;;;;5114276;28;19920;-64
2023/06/11 03:50:12;;;;;;;;;;;23.40;51.20;;;;;;5114264;28;20355;-64
2023/06/11 03:52:37;;;;;;;;;;;23.40;51.20;;;;;;5095802;28;19920;-64
2023/06/11 03:55:03;;;;;;;;;;;23.30;51.10;;;;;;5095900;28;19947;-64
2023/06/11 03:57:28;;;;;;;;;;;23.40;51.20;;;;;;5096159;28;19951;-64
2023/06/11 03:59:54;;;;;;;;;;;23.30;51.20;;;;;;5095785;28;19920;-64
2023/06/11 04:02:19;;;;;;;;;;;23.30;51.20;;;;;;5096027;28;19969;-64
2023/06/11 04:04:45;;;;;;;;;;;23.30;51.20;;;;;;5096003;28;19926;-64
2023/06/11 04:07:11;;;;;;;;;;;23.30;51.20;;;;;;5113808;28;19926;-64
2023/06/11 04:09:37;;;;;;;;;;;23.30;51.20;;;;;;5114137;28;20428;-64
2023/06/11 04:12:02;;;;;;;;;;;23.30;51.20;;;;;;5129517;27;19932;-64
2023/06/11 04:14:28;;;;;;;;;;;23.30;51.30;;;;;;5095908;28;19920;-64
2023/06/11 04:16:53;;;;;;;;;;;23.30;51.30;;;;;;5095721;28;20014;-64
2023/06/11 04:19:19;;;;;;;;;;;23.30;51.30;;;;;;5095330;28;20378;-64
2023/06/11 04:21:44;;;;;;;;;;;23.20;51.30;;;;;;5095433;28;19967;-64
2023/06/11 04:24:10;;;;;;;;;;;23.20;51.30;;;;;;5095528;28;19927;-64
2023/06/11 04:26:36;;;;;;;;;;;23.20;52.00;;;;;;5095324;28;19920;-64
2023/06/11 04:29:02;;;;;;;;;;;23.20;51.40;;;;;;5113498;28;19926;-64
2023/06/11 04:31:29;;;;;;;;;;;23.20;51.40;;;;;;5095443;28;19941;-64
2023/06/11 04:33:56;;;;;;;;;;;23.20;51.40;;;;;;5095516;28;19982;-64
2023/06/11 04:36:24;;;;;;;;;;;23.20;51.40;;;;;;5095452;28;20294;-64
2023/06/11 04:38:51;;;;;;;;;;;23.20;51.40;;;;;;5094797;28;20290;-64
2023/06/11 04:41:17;;;;;;;;;;;23.20;51.50;;;;;;5095126;28;19923;-64
2023/06/11 04:43:44;;;;;;;;;;;23.20;51.40;;;;;;5113354;28;19970;-64
2023/06/11 04:46:10;;;;;;;;;;;23.20;51.50;;;;;;5095050;28;20405;-64
2023/06/11 04:48:37;;;;;;;;;;;23.20;51.50;;;;;;5113192;28;20014;-64
2023/06/11 04:51:04;;;;;;;;;;;23.10;51.50;;;;;;5094990;28;19920;-63
2023/06/11 04:53:30;;;;;;;;;;;23.20;51.60;;;;;;5094724;28;20394;-64
2023/06/11 04:55:56;;;;;;;;;;;23.20;51.50;;;;;;5113282;28;20320;-64
2023/06/11 04:58:22;;;;;;;;;;;23.20;51.60;;;;;;5112965;28;19975;-64
2023/06/11 05:00:48;;;;;;;;;;;23.10;51.60;;;;;;5095060;28;19919;-64
2023/06/11 05:03:16;;;;;;;;;;;23.20;51.70;;;;;;5112961;28;20267;-64
2023/06/11 05:05:49;;;;;;;;;;;23.20;51.70;;;;;;5094795;28;19919;-64
2023/06/11 05:08:17;;;;;;;;;;;23.10;51.70;;;;;;5112873;28;19926;-64
2023/06/11 05:10:43;;;;;;;;;;;23.20;51.70;;;;;;5112669;28;19924;-64
2023/06/11 05:13:09;;;;;;;;;;;23.20;51.70;;;;;;5112753;28;20379;-64
2023/06/11 05:15:34;;;;;;;;;;;23.20;51.80;;;;;;5128981;27;19919;-64
2023/06/11 05:18:00;;;;;;;;;;;23.20;51.80;;;;;;5094844;28;19920;-64
2023/06/11 05:20:26;;;;;;;;;;;23.10;51.80;;;;;;5094764;28;19920;-64
2023/06/11 05:22:58;;;;;;;;;;;23.10;51.90;;;;;;5112759;28;20017;-64
2023/06/11 05:25:27;;;;;;;;;;;23.20;51.90;;;;;;5094422;28;19926;-64
2023/06/11 05:27:53;;;;;;;;;;;23.10;51.90;;;;;;5094797;28;19976;-64
2023/06/11 05:30:24;;;;;;;;;;;23.10;51.90;;;;;;5094697;28;19924;-64
2023/06/11 05:32:54;;;;;;;;;;;23.10;51.90;;;;;;5112613;28;20534;-64
2023/06/11 05:35:20;;;;;;;;;;;23.10;51.90;;;;;;5094294;28;19920;-64
2023/06/11 05:37:46;;;;;;;;;;;23.10;52.00;;;;;;5094759;28;19927;-64
2023/06/11 05:40:12;;;;;;;;;;;23.10;52.00;;;;;;5112551;28;19927;-64
2023/06/11 05:42:38;;;;;;;;;;;23.20;52.10;;;;;;5128763;28;19919;-64
2023/06/11 05:45:04;;;;;;;;;;;23.10;52.10;;;;;;5128694;28;19927;-64
2023/06/11 05:47:29;;;;;;;;;;;23.10;52.10;;;;;;5094572;28;19981;-63
2023/06/11 05:49:55;;;;;;;;;;;23.10;52.30;;;;;;5115641;28;20463;-64
2023/06/11 05:52:21;;;;;;;;;;;23.10;52.20;;;;;;5116449;28;19951;-64
2023/06/11 05:54:46;;;;;;;;;;;23.10;52.30;;;;;;5116468;28;20298;-64
2023/06/11 05:57:19;;;;;;;;;;;23.10;52.20;;;;;;5132270;27;19965;-63
2023/06/11 05:59:45;;;;;;;;;;;23.10;52.40;;;;;;5116462;28;20379;-64
2023/06/11 06:02:10;;;;;;;;;;;23.10;52.40;;;;;;5098108;28;19919;-63
2023/06/11 06:04:36;;;;;;;;;;;23.10;52.30;;;;;;5116328;28;19920;-63
2023/06/11 06:07:01;;;;;;;;;;;23.10;52.40;;;;;;5098164;28;20015;-64
2023/06/11 06:09:27;;;;;;;;;;;23.10;52.40;;;;;;5097967;28;19927;-64
2023/06/11 06:11:52;;;;;;;;;;;23.10;52.40;;;;;;5131720;27;19924;-64
2023/06/11 06:14:18;;;;;;;;;;;23.10;52.40;;;;;;5098152;28;19968;-64
2023/06/11 06:16:43;;;;;;;;;;;23.10;52.60;;;;;;5098066;28;20305;-64
2023/06/11 06:19:09;;;;;;;;;;;23.10;52.40;;;;;;5116062;28;20011;-64
2023/06/11 06:21:34;;;;;;;;;;;23.10;52.50;;;;;;5097624;28;19938;-63
2023/06/11 06:24:00;;;;;;;;;;;23.10;52.50;;;;;;5098031;28;19927;-64
2023/06/11 06:26:25;;;;;;;;;;;23.10;52.50;;;;;;5097591;28;20355;-64
2023/06/11 06:28:53;;;;;;;;;;;23.10;52.60;;;;;;5097652;28;19939;-64
2023/06/11 06:31:20;;;;;;;;;;;23.10;52.60;;;;;;5115750;28;20401;-64
2023/06/11 06:33:46;;;;;;;;;;;23.10;52.60;;;;;;5097904;28;19981;-64
2023/06/11 06:36:11;;;;;;;;;;;23.10;52.60;;;;;;5115656;28;20401;-64
2023/06/11 06:38:37;;;;;;;;;;;23.10;52.60;;;;;;5097661;28;19981;-64
2023/06/11 06:41:02;;;;;;;;;;;23.10;52.60;;;;;;5115879;28;19920;-64
2023/06/11 06:43:28;;;;;;;;;;;23.20;52.60;;;;;;5097474;28;19920;-64
2023/06/11 06:45:54;;;;;;;;;;;23.10;52.50;;;;;;5097589;28;19920;-64
2023/06/11 06:48:20;;;;;;;;;;;23.20;52.50;;;;;;5097163;28;19927;-64
2023/06/11 06:50:46;;;;;;;;;;;23.20;52.50;;;;;;5097484;28;20386;-64
2023/06/11 06:53:11;;;;;;;;;;;23.20;52.60;;;;;;5097011;28;19927;-64
2023/06/11 06:55:37;;;;;;;;;;;23.20;52.50;;;;;;5115587;28;20450;-64
2023/06/11 06:58:02;;;;;;;;;;;23.10;52.70;;;;;;5115298;28;19920;-63
2023/06/11 07:00:28;;;;;;;;;;;23.20;52.90;;;;;;5096584;28;19996;-63
2023/06/11 07:02:53;;;;;;;;;;;23.20;52.90;;;;;;5115276;28;20295;-64
2023/06/11 07:05:19;;;;;;;;;;;23.20;52.70;;;;;;5097284;28;19924;-64
2023/06/11 07:07:44;;;;;;;;;;;23.10;52.80;;;;;;5097080;28;19926;-64
2023/06/11 07:10:10;;;;;;;;;;;23.20;52.90;;;;;;5096949;28;19923;-64
2023/06/11 07:12:35;;;;;;;;;;;23.20;52.90;;;;;;5096515;28;19930;-64
2023/06/11 07:15:01;;;;;;;;;;;23.20;52.60;;;;;;5131209;27;20014;-64
2023/06/11 07:17:27;;;;;;;;;;;23.20;53.00;;;;;;5096664;28;20424;-64
2023/06/11 07:19:53;;;;;;;;;;;23.20;52.90;;;;;;5096566;28;20379;-63
2023/06/11 07:22:18;;;;;;;;;;;23.20;52.70;;;;;;5130693;27;19924;-64
2023/06/11 07:24:47;;;;;;;;;;;23.20;52.90;;;;;;5130566;27;19920;-64
2023/06/11 07:27:13;;;;;;;;;;;23.20;52.60;;;;;;5096796;28;19920;-63
2023/06/11 07:29:39;;;;;;;;;;;23.20;52.90;;;;;;5130534;27;19939;-64
2023/06/11 07:32:05;;;;;;;;;;;23.20;53.00;;;;;;5114635;28;20010;-64
2023/06/11 07:34:31;;;;;;;;;;;23.20;52.90;;;;;;5114562;28;19920;-64
2023/06/11 07:36:56;;;;;;;;;;;23.20;52.90;;;;;;5096467;28;20056;-64
2023/06/11 07:39:22;;;;;;;;;;;23.20;52.70;;;;;;5130030;27;19931;-64
2023/06/11 07:41:47;;;;;;;;;;;23.20;52.90;;;;;;5096456;28;19920;-64
2023/06/11 07:44:13;;;;;;;;;;;23.20;53.00;;;;;;5096249;28;20309;-63
2023/06/11 07:46:39;;;;;;;;;;;23.20;52.70;;;;;;5096387;28;19924;-64
2023/06/11 07:49:04;;;;;;;;;;;23.20;52.90;;;;;;5114290;28;20022;-63
2023/06/11 07:51:31;;;;;;;;;;;23.20;52.90;;;;;;5114211;28;19920;-63
2023/06/11 07:53:58;;;;;;;;;;;23.20;52.80;;;;;;5114106;28;20409;-64
2023/06/11 07:56:24;;;;;;;;;;;23.20;53.00;;;;;;5114374;28;19927;-64
2023/06/11 07:58:50;;;;;;;;;;;23.20;52.70;;;;;;5114246;28;20287;-63
2023/06/11 08:01:15;;;;;;;;;;;23.20;52.80;;;;;;5095931;28;19920;-63
2023/06/11 08:03:41;;;;;;;;;;;23.30;53.30;;;;;;5114141;28;19920;-63
2023/06/11 08:06:07;;;;;;;;;;;23.20;53.00;;;;;;5129878;27;19919;-63
2023/06/11 08:08:33;;;;;;;;;;;23.20;53.20;;;;;;5113884;28;19919;-63
2023/06/11 08:10:58;;;;;;;;;;;23.20;53.20;;;;;;5113414;28;20310;-63
2023/06/11 08:13:24;;;;;;;;;;;23.20;53.30;;;;;;5094555;28;19931;-64
2023/06/11 08:15:49;;;;;;;;;;;23.20;53.40;;;;;;5095295;28;20006;-64
2023/06/11 08:18:15;;;;;;;;;;;23.20;53.40;;;;;;5095671;28;19927;-64
2023/06/11 08:20:40;;;;;;;;;;;23.20;53.50;;;;;;5095531;28;20395;-64
2023/06/11 08:23:06;;;;;;;;;;;23.20;53.60;;;;;;5095450;28;20033;-63
2023/06/11 08:25:31;;;;;;;;;;;23.20;53.40;;;;;;5095434;28;20294;-64
2023/06/11 08:27:58;;;;;;;;;;;23.20;53.40;;;;;;5113903;28;19924;-64
2023/06/11 08:30:24;;;;;;;;;;;23.20;53.60;;;;;;5095097;28;19932;-64
2023/06/11 08:32:49;;;;;;;;;;;23.20;53.60;;;;;;5095448;28;19923;-64
2023/06/11 08:35:15;;;;;;;;;;;23.20;53.60;;;;;;5113451;28;20297;-64
2023/06/11 08:37:40;;;;;;;;;;;23.20;53.50;;;;;;5095488;28;19924;-64
2023/06/11 08:40:08;;;;;;;;;;;23.30;53.80;;;;;;5094996;28;19927;-64
2023/06/11 08:42:34;;;;;;;;;;;23.30;53.80;;;;;;5095334;28;20022;-64
2023/06/11 08:45:00;;;;;;;;;;;23.20;53.50;;;;;;5095428;28;20290;-64
2023/06/11 08:47:25;;;;;;;;;;;23.30;53.80;;;;;;5094924;28;19920;-64
2023/06/11 08:49:51;;;;;;;;;;;23.30;53.80;;;;;;5095264;28;20014;-64
2023/06/11 08:52:17;;;;;;;;;;;23.30;53.60;;;;;;5094836;28;20406;-63
2023/06/11 08:54:42;;;;;;;;;;;23.20;54.10;;;;;;5113060;28;20081;-63
2023/06/11 08:57:08;;;;;;;;;;;23.30;53.70;;;;;;5113062;28;19972;-64
2023/06/11 08:59:34;;;;;;;;;;;23.30;53.80;;;;;;5095167;28;19927;-63
2023/06/11 09:02:00;;;;;;;;;;;23.30;53.70;;;;;;5113141;28;19920;-64
2023/06/11 09:04:26;;;;;;;;;;;23.30;53.60;;;;;;5094761;28;20057;-63
2023/06/11 09:06:52;;;;;;;;;;;23.30;53.60;;;;;;5112886;28;20384;-64
2023/06/11 09:09:18;;;;;;;;;;;23.40;53.70;;;;;;5095054;28;20371;-64
2023/06/11 09:11:44;;;;;;;;;;;23.40;53.50;;;;;;5090909;28;19931;-64
2023/06/11 09:14:10;;;;;;;;;;;23.40;53.60;;;;;;5091504;28;19920;-63
2023/06/11 09:16:38;;;;;;;;;;;23.30;53.50;;;;;;5091550;28;19920;-63
2023/06/11 09:19:03;;;;;;;;;;;23.40;53.40;;;;;;5091490;28;19963;-63
2023/06/11 09:21:29;;;;;;;;;;;23.40;53.50;;;;;;5091169;28;20358;-63
2023/06/11 09:23:54;;;;;;;;;;;23.40;53.40;;;;;;5090933;28;19920;-63
2023/06/11 09:26:20;;;;;;;;;;;23.40;53.40;;;;;;5091387;28;19969;-64
2023/06/11 09:28:46;;;;;;;;;;;23.50;53.50;;;;;;5092629;28;20007;-64
2023/06/11 09:31:12;;;;;;;;;;;23.50;53.40;;;;;;5091500;28;20415;-63
2023/06/11 09:33:38;;;;;;;;;;;23.50;53.40;;;;;;5091031;28;19975;-64
2023/06/11 09:36:03;;;;;;;;;;;23.50;53.40;;;;;;5091322;28;19921;-63
2023/06/11 09:38:32;;;;;;;;;;;23.50;53.40;;;;;;5091289;28;20424;-64
2023/06/11 09:40:57;;;;;;;;;;;23.60;53.40;;;;;;5090975;28;19970;-64
2023/06/11 09:43:23;;;;;;;;;;;23.50;53.40;;;;;;5092219;28;19920;-64
2023/06/11 09:45:52;;;;;;;;;;;23.60;53.50;;;;;;5091297;28;20359;-65
2023/06/11 09:48:19;;;;;;;;;;;23.50;53.40;;;;;;5092262;28;20319;-63
2023/06/11 09:50:44;;;;;;;;;;;23.60;53.50;;;;;;5092367;28;19920;-63
2023/06/11 09:53:10;;;;;;;;;;;23.60;53.40;;;;;;5090837;28;19931;-64
2023/06/11 09:55:37;;;;;;;;;;;23.60;53.40;;;;;;5092134;28;19920;-64
2023/06/11 09:58:03;;;;;;;;;;;23.60;54.20;;;;;;5091065;28;19943;-64
2023/06/11 10:00:28;;;;;;;;;;;23.60;53.40;;;;;;5092268;28;19920;-64
2023/06/11 10:02:54;;;;;;;;;;;23.60;54.20;;;;;;5090909;28;19920;-63
2023/06/11 10:05:20;;;;;;;;;;;23.60;53.50;;;;;;5091059;28;19920;-64
2023/06/11 10:07:48;;;;;;;;;;;23.60;53.50;;;;;;5091276;28;19920;-64
2023/06/11 10:10:17;;;;;;;;;;;23.60;53.60;;;;;;5091227;28;20014;-64
2023/06/11 10:12:51;;;;;;;;;;;23.60;53.50;;;;;;5107772;28;20280;-64
2023/06/11 10:15:17;;;;;;;;;;;23.60;53.60;;;;;;5074122;28;20011;-64
2023/06/11 10:17:47;;;;;;;;;;;23.70;53.70;;;;;;5073930;28;19927;-64
2023/06/11 10:20:17;;;;;;;;;;;23.70;53.70;;;;;;5091853;28;20372;-64
2023/06/11 10:22:42;;;;;;;;;;;23.70;53.60;;;;;;5091917;28;19943;-64
2023/06/11 10:25:08;;;;;;;;;;;23.70;53.70;;;;;;5073663;28;19920;-64
2023/06/11 10:27:36;;;;;;;;;;;23.70;53.70;;;;;;5092043;28;20011;-67
2023/06/11 10:30:02;;;;;;;;;;;23.70;53.80;;;;;;5073665;28;19924;-63
2023/06/11 10:32:28;;;;;;;;;;;23.70;53.80;;;;;;5091758;28;19924;-64
2023/06/11 10:34:55;;;;;;;;;;;23.70;53.80;;;;;;5073630;28;19927;-64
2023/06/11 10:40:09;;;;;;;;;;;23.70;53.80;;;;;;5089936;28;19923;-64
2023/06/11 10:45:14;;;;;;;;;;;23.70;53.80;;;;;;5110273;27;19912;-64
2023/06/11 10:47:42;;;;;;;;;;;23.70;53.80;;;;;;5109186;28;19942;-63
2023/06/11 10:50:09;;;;;;;;;;;23.80;53.90;;;;;;5109123;28;19927;-64
2023/06/11 10:52:51;;;;;;;;;;;23.80;53.80;;;;;;5110106;28;20298;-64
2023/06/11 10:55:17;;;;;;;;;;;23.70;53.70;;;;;;5108914;28;19969;-64
2023/06/11 10:57:43;;;;;;;;;;;23.70;54.20;;;;;;5109077;28;19981;-64
2023/06/11 11:00:09;;;;;;;;;;;23.80;54.00;;;;;;5109089;28;19920;-64
2023/06/11 11:02:35;;;;;;;;;;;23.80;55.30;;;;;;5110001;28;19998;-64
2023/06/11 11:05:00;;;;;;;;;;;23.80;55.30;;;;;;5108550;28;20399;-63
2023/06/11 11:07:33;;;;;;;;;;;23.80;55.40;;;;;;5108824;28;19964;-64
2023/06/11 11:09:59;;;;;;;;;;;23.80;54.40;;;;;;5110016;28;20283;-64
2023/06/11 11:12:24;;;;;;;;;;;23.80;53.90;;;;;;5108388;28;19920;-64
2023/06/11 11:14:50;;;;;;;;;;;23.80;53.90;;;;;;5108503;28;20351;-63
2023/06/11 11:17:16;;;;;;;;;;;23.80;53.90;;;;;;5108659;28;19931;-64
2023/06/11 11:19:41;;;;;;;;;;;23.80;53.90;;;;;;5108564;28;19920;-64
2023/06/11 11:22:07;;;;;;;;;;;23.80;53.70;;;;;;5109785;28;19980;-69
2023/06/11 11:24:35;;;;;;;;;;;23.80;54.90;;;;;;5108216;28;19924;-64
2023/06/11 11:27:01;;;;;;;;;;;23.90;54.20;;;;;;5108511;28;19924;-64
2023/06/11 11:29:27;;;;;;;;;;;23.80;54.20;;;;;;5108243;28;20291;-64
2023/06/11 11:31:52;;;;;;;;;;;23.90;53.60;;;;;;5108085;28;19920;-64
2023/06/11 11:34:19;;;;;;;;;;;23.90;53.60;;;;;;5108352;28;19920;-64
2023/06/11 11:36:45;;;;;;;;;;;23.90;53.80;;;;;;5107928;28;19967;-63
2023/06/11 11:39:13;;;;;;;;;;;23.90;53.50;;;;;;5108361;28;19942;-64
2023/06/11 11:41:53;;;;;;;;;;;23.90;53.40;;;;;;5108197;28;20260;-63
2023/06/11 11:44:20;;;;;;;;;;;23.90;53.30;;;;;;5142109;27;19999;-64
2023/06/11 11:46:45;;;;;;;;;;;23.90;53.30;;;;;;5108062;28;19927;-64
2023/06/11 11:49:12;;;;;;;;;;;23.90;53.70;;;;;;5107720;28;19924;-64
2023/06/11 11:51:40;;;;;;;;;;;23.90;53.20;;;;;;5109235;28;19963;-64
2023/06/11 11:54:06;;;;;;;;;;;23.90;53.20;;;;;;5107667;28;19930;-64
2023/06/11 11:56:33;;;;;;;;;;;23.90;53.20;;;;;;5095528;28;19920;-64
2023/06/11 11:58:59;;;;;;;;;;;23.90;53.50;;;;;;5094275;28;20014;-64
2023/06/11 12:01:30;;;;;;;;;;;24.00;53.10;;;;;;5095322;28;20015;-63
2023/06/11 12:03:57;;;;;;;;;;;23.90;53.00;;;;;;5094010;28;19935;-63
2023/06/11 12:06:24;;;;;;;;;;;24.00;53.00;;;;;;5095440;28;20442;-64
2023/06/11 12:08:49;;;;;;;;;;;24.00;53.00;;;;;;5093842;28;19924;-63
2023/06/11 12:11:15;;;;;;;;;;;24.00;53.00;;;;;;5095027;28;20359;-64
2023/06/11 12:13:40;;;;;;;;;;;24.00;52.90;;;;;;5094001;28;19943;-64
2023/06/11 12:16:06;;;;;;;;;;;24.00;52.90;;;;;;5093741;28;20057;-63
2023/06/11 12:18:32;;;;;;;;;;;24.00;53.50;;;;;;5093826;28;19920;-64
2023/06/11 12:20:57;;;;;;;;;;;24.00;53.00;;;;;;5093634;28;19945;-64
2023/06/11 12:23:23;;;;;;;;;;;24.10;52.80;;;;;;5093418;28;19927;-64
2023/06/11 12:25:48;;;;;;;;;;;24.10;52.80;;;;;;5093557;28;19920;-64
2023/06/11 12:28:14;;;;;;;;;;;24.10;52.70;;;;;;5093699;28;19920;-63
2023/06/11 12:30:40;;;;;;;;;;;24.10;52.70;;;;;;5093417;28;19920;-64
2023/06/11 12:33:06;;;;;;;;;;;24.10;52.60;;;;;;5093630;28;19981;-63
2023/06/11 12:35:31;;;;;;;;;;;24.10;53.40;;;;;;5093619;28;19974;-64
2023/06/11 12:37:57;;;;;;;;;;;24.10;52.60;;;;;;5094792;28;20291;-68
2023/06/11 12:40:23;;;;;;;;;;;24.10;53.40;;;;;;5093206;28;19920;-64
2023/06/11 12:42:56;;;;;;;;;;;24.20;52.60;;;;;;5093730;28;19927;-63
2023/06/11 12:45:22;;;;;;;;;;;24.20;52.50;;;;;;5114817;28;19919;-64
2023/06/11 12:47:47;;;;;;;;;;;24.10;52.50;;;;;;5096362;28;19935;-68
2023/06/11 12:50:13;;;;;;;;;;;24.20;52.40;;;;;;5114942;28;19928;-64
2023/06/11 12:52:41;;;;;;;;;;;24.20;52.40;;;;;;5096374;28;19920;-64
2023/06/11 12:55:07;;;;;;;;;;;24.20;52.30;;;;;;5096249;28;19927;-64
2023/06/11 12:57:33;;;;;;;;;;;24.20;52.30;;;;;;5114720;28;19920;-64
2023/06/11 12:59:58;;;;;;;;;;;24.20;52.20;;;;;;5096413;28;19920;-64
2023/06/11 13:02:24;;;;;;;;;;;24.30;52.20;;;;;;5114567;28;19967;-64
2023/06/11 13:04:49;;;;;;;;;;;24.30;52.20;;;;;;5096043;28;20329;-64
2023/06/11 13:07:15;;;;;;;;;;;24.30;52.20;;;;;;5095416;28;20279;-63
2023/06/11 13:09:40;;;;;;;;;;;24.30;52.20;;;;;;5095996;28;20291;-63
2023/06/11 13:12:06;;;;;;;;;;;24.30;52.10;;;;;;5095912;28;19931;-64
2023/06/11 13:14:32;;;;;;;;;;;24.30;52.10;;;;;;5096171;28;19973;-64
2023/06/11 13:16:57;;;;;;;;;;;24.30;52.00;;;;;;5095901;28;20011;-64
2023/06/11 13:19:23;;;;;;;;;;;24.30;52.10;;;;;;5130255;27;19926;-64
2023/06/11 13:21:48;;;;;;;;;;;24.30;52.00;;;;;;5113998;28;19927;-64
2023/06/11 13:24:14;;;;;;;;;;;24.30;51.90;;;;;;5095793;28;19950;-68
2023/06/11 13:26:40;;;;;;;;;;;24.30;51.90;;;;;;5096074;28;20007;-64
2023/06/11 13:29:06;;;;;;;;;;;24.40;51.90;;;;;;5095964;28;19924;-63
2023/06/11 13:31:31;;;;;;;;;;;24.40;51.90;;;;;;5095560;28;20386;-63
2023/06/11 13:33:57;;;;;;;;;;;24.40;51.90;;;;;;5129704;27;19919;-63
2023/06/11 13:36:22;;;;;;;;;;;24.40;51.80;;;;;;5113610;28;19946;-64
2023/06/11 13:38:48;;;;;;;;;;;24.40;51.80;;;;;;5113910;28;19919;-64
2023/06/11 13:41:13;;;;;;;;;;;24.40;51.80;;;;;;5113672;28;19935;-64
2023/06/11 13:43:39;;;;;;;;;;;24.40;51.70;;;;;;5095214;28;20049;-64
2023/06/11 13:46:04;;;;;;;;;;;24.50;51.80;;;;;;5095329;28;19919;-63
2023/06/11 13:48:31;;;;;;;;;;;24.50;51.70;;;;;;5095553;28;19919;-63
2023/06/11 13:50:56;;;;;;;;;;;24.50;51.70;;;;;;5095384;28;19924;-64
2023/06/11 13:53:22;;;;;;;;;;;24.50;51.60;;;;;;5113715;28;19973;-63
2023/06/11 13:55:48;;;;;;;;;;;24.50;53.80;;;;;;5129242;27;19923;-63
2023/06/11 13:58:14;;;;;;;;;;;24.50;51.70;;;;;;5095437;28;19920;-64
2023/06/11 14:00:41;;;;;;;;;;;24.50;51.60;;;;;;5095034;28;19969;-64
2023/06/11 14:03:06;;;;;;;;;;;24.50;51.50;;;;;;5094852;28;19924;-63
2023/06/11 14:05:32;;;;;;;;;;;24.50;51.70;;;;;;5095323;28;20260;-64
2023/06/11 14:07:58;;;;;;;;;;;24.50;51.70;;;;;;5128988;27;19993;-64
2023/06/11 14:10:24;;;;;;;;;;;24.60;51.70;;;;;;5113097;28;20418;-64
2023/06/11 14:12:49;;;;;;;;;;;24.60;51.80;;;;;;5095097;28;19919;-64
2023/06/11 14:15:17;;;;;;;;;;;24.60;51.60;;;;;;5094928;28;20298;-68